createdAt,value
2023-04-20T00:00:23.443Z,87
2023-04-20T00:01:30.339Z,87
2023-04-20T00:02:37.392Z,87
2023-04-20T00:03:44.089Z,88
2023-04-20T00:04:50.901Z,87
2023-04-20T00:05:58.616Z,87
2023-04-20T00:07:05.453Z,87
2023-04-20T00:08:12.399Z,87
2023-04-20T00:09:19.395Z,87
2023-04-20T00:10:26.119Z,87
2023-04-20T00:11:32.907Z,87
2023-04-20T00:12:39.781Z,87
2023-04-20T00:13:46.639Z,87
2023-04-20T00:14:53.473Z,87
2023-04-20T00:16:00.424Z,87
2023-04-20T00:17:07.486Z,87
2023-04-20T00:18:14.251Z,87
2023-04-20T00:19:22.088Z,87
2023-04-20T00:20:28.952Z,87
2023-04-20T00:21:36.697Z,87
2023-04-20T00:22:43.631Z,87
2023-04-20T00:23:50.505Z,87
2023-04-20T00:24:57.386Z,87
2023-04-20T00:26:04.240Z,87
2023-04-20T00:27:11.105Z,87
2023-04-20T00:28:17.984Z,87
2023-04-20T00:29:24.977Z,87
2023-04-20T00:30:31.914Z,87
2023-04-20T00:31:38.857Z,87
2023-04-20T00:32:45.827Z,87
2023-04-20T00:33:52.731Z,87
2023-04-20T00:34:59.542Z,86
2023-04-20T00:36:06.456Z,86
2023-04-20T00:37:13.418Z,86
2023-04-20T00:38:20.312Z,86
2023-04-20T00:39:27.250Z,86
2023-04-20T00:40:34.104Z,86
2023-04-20T00:41:41.049Z,86
2023-04-20T00:42:47.897Z,86
2023-04-20T00:43:54.854Z,87
2023-04-20T00:45:01.788Z,87
2023-04-20T00:46:08.954Z,87
2023-04-20T00:47:15.900Z,86
2023-04-20T00:48:22.805Z,86
2023-04-20T00:49:29.636Z,86
2023-04-20T00:50:36.559Z,86
2023-04-20T00:51:44.240Z,86
2023-04-20T00:52:51.076Z,86
2023-04-20T00:53:57.959Z,87
2023-04-20T00:55:04.892Z,87
2023-04-20T00:56:11.931Z,86
2023-04-20T00:57:18.820Z,86
2023-04-20T00:58:25.649Z,86
2023-04-20T00:59:32.494Z,87
2023-04-20T01:00:39.338Z,86
2023-04-20T01:01:46.295Z,86
2023-04-20T01:02:53.258Z,86
2023-04-20T01:04:00.134Z,86
2023-04-20T01:05:06.928Z,86
2023-04-20T01:06:13.758Z,86
2023-04-20T01:07:20.593Z,86
2023-04-20T01:08:27.478Z,86
2023-04-20T01:09:35.099Z,86
2023-04-20T01:10:41.946Z,86
2023-04-20T01:11:48.763Z,86
2023-04-20T01:12:55.608Z,86
2023-04-20T01:14:02.520Z,86
2023-04-20T01:15:09.772Z,86
2023-04-20T01:16:16.684Z,87
2023-04-20T01:17:23.438Z,86
2023-04-20T01:18:30.228Z,86
2023-04-20T01:19:45.319Z,86
2023-04-20T01:20:52.246Z,86
2023-04-20T01:21:59.980Z,86
2023-04-20T01:23:06.853Z,86
2023-04-20T01:24:13.768Z,86
2023-04-20T01:25:20.637Z,86
2023-04-20T01:26:27.581Z,86
2023-04-20T01:27:34.334Z,86
2023-04-20T01:28:41.226Z,86
2023-04-20T01:29:48.051Z,86
2023-04-20T01:30:54.976Z,86
2023-04-20T01:32:01.802Z,86
2023-04-20T01:33:08.757Z,86
2023-04-20T01:34:15.644Z,86
2023-04-20T01:35:22.556Z,86
2023-04-20T01:36:29.425Z,86
2023-04-20T01:37:36.276Z,86
2023-04-20T01:38:43.106Z,86
2023-04-20T01:39:50.006Z,86
2023-04-20T01:40:56.777Z,86
2023-04-20T01:42:03.783Z,86
2023-04-20T01:43:10.594Z,86
2023-04-20T01:44:17.497Z,86
2023-04-20T01:45:24.485Z,86
2023-04-20T01:46:31.285Z,86
2023-04-20T01:47:40.889Z,86
2023-04-20T01:48:47.686Z,87
2023-04-20T01:49:54.482Z,87
2023-04-20T01:51:01.400Z,87
2023-04-20T01:52:08.306Z,87
2023-04-20T01:53:15.158Z,87
2023-04-20T01:54:21.990Z,87
2023-04-20T01:55:28.841Z,86
2023-04-20T01:56:35.750Z,87
2023-04-20T01:57:42.611Z,87
2023-04-20T01:58:49.458Z,87
2023-04-20T01:59:56.289Z,87
2023-04-20T02:01:03.519Z,87
2023-04-20T02:02:10.505Z,87
2023-04-20T02:03:17.457Z,87
2023-04-20T02:04:24.095Z,87
2023-04-20T02:05:30.934Z,87
2023-04-20T02:06:37.821Z,87
2023-04-20T02:07:44.677Z,87
2023-04-20T02:08:51.511Z,87
2023-04-20T02:09:58.413Z,87
2023-04-20T02:11:05.271Z,87
2023-04-20T02:12:12.317Z,87
2023-04-20T02:13:19.185Z,87
2023-04-20T02:14:26.025Z,87
2023-04-20T02:15:33.474Z,87
2023-04-20T02:16:40.369Z,87
2023-04-20T02:17:47.322Z,88
2023-04-20T02:18:54.064Z,87
2023-04-20T02:20:00.977Z,87
2023-04-20T02:21:07.966Z,87
2023-04-20T02:22:14.799Z,87
2023-04-20T02:23:21.639Z,87
2023-04-20T02:24:28.503Z,88
2023-04-20T02:25:35.362Z,87
2023-04-20T02:26:42.315Z,87
2023-04-20T02:27:49.280Z,87
2023-04-20T02:28:56.154Z,87
2023-04-20T02:30:03.088Z,87
2023-04-20T02:31:10.339Z,87
2023-04-20T02:32:17.166Z,87
2023-04-20T02:33:24.076Z,87
2023-04-20T02:34:30.962Z,87
2023-04-20T02:35:37.742Z,87
2023-04-20T02:36:44.572Z,87
2023-04-20T02:37:51.400Z,87
2023-04-20T02:38:58.268Z,87
2023-04-20T02:40:05.103Z,87
2023-04-20T02:41:12.075Z,87
2023-04-20T02:42:18.870Z,88
2023-04-20T02:43:25.689Z,87
2023-04-20T02:44:32.606Z,87
2023-04-20T02:45:39.483Z,87
2023-04-20T02:46:46.443Z,87
2023-04-20T02:47:53.242Z,87
2023-04-20T02:49:00.941Z,87
2023-04-20T02:50:07.786Z,87
2023-04-20T02:51:14.648Z,87
2023-04-20T02:52:21.462Z,87
2023-04-20T02:53:28.357Z,87
2023-04-20T02:54:35.201Z,87
2023-04-20T02:55:42.084Z,87
2023-04-20T02:56:48.897Z,87
2023-04-20T02:57:55.733Z,87
2023-04-20T02:59:02.619Z,87
2023-04-20T03:00:09.612Z,87
2023-04-20T03:01:16.490Z,88
2023-04-20T03:02:24.446Z,87
2023-04-20T03:03:31.397Z,87
2023-04-20T03:04:38.251Z,87
2023-04-20T03:05:45.001Z,88
2023-04-20T03:06:51.895Z,88
2023-04-20T03:07:58.850Z,88
2023-04-20T03:09:05.672Z,88
2023-04-20T03:10:12.523Z,88
2023-04-20T03:11:19.366Z,88
2023-04-20T03:12:26.286Z,88
2023-04-20T03:13:33.125Z,88
2023-04-20T03:14:39.968Z,88
2023-04-20T03:15:47.985Z,88
2023-04-20T03:16:54.813Z,88
2023-04-20T03:18:01.995Z,87
2023-04-20T03:19:08.766Z,87
2023-04-20T03:20:15.565Z,87
2023-04-20T03:21:24.041Z,87
2023-04-20T03:22:30.881Z,87
2023-04-20T03:23:37.749Z,87
2023-04-20T03:24:44.616Z,88
2023-04-20T03:25:52.347Z,88
2023-04-20T03:26:59.261Z,88
2023-04-20T03:28:06.189Z,88
2023-04-20T03:29:13.031Z,88
2023-04-20T03:30:22.007Z,88
2023-04-20T03:31:29.117Z,88
2023-04-20T03:32:36.064Z,88
2023-04-20T03:33:42.861Z,88
2023-04-20T03:34:49.660Z,88
2023-04-20T03:35:56.482Z,88
2023-04-20T03:37:03.407Z,88
2023-04-20T03:38:10.334Z,87
2023-04-20T03:39:17.458Z,87
2023-04-20T03:40:24.925Z,87
2023-04-20T03:41:31.839Z,87
2023-04-20T03:42:38.685Z,87
2023-04-20T03:43:45.517Z,87
2023-04-20T03:44:52.484Z,87
2023-04-20T03:45:59.318Z,87
2023-04-20T03:47:06.201Z,87
2023-04-20T03:48:13.000Z,87
2023-04-20T03:49:21.485Z,87
2023-04-20T03:50:31.114Z,87
2023-04-20T03:51:39.047Z,87
2023-04-20T03:52:45.951Z,87
2023-04-20T03:53:52.826Z,87
2023-04-20T03:54:59.637Z,87
2023-04-20T03:56:06.578Z,87
2023-04-20T03:57:13.404Z,87
2023-04-20T03:58:20.190Z,88
2023-04-20T03:59:27.015Z,87
2023-04-20T04:00:33.825Z,87
2023-04-20T04:01:40.657Z,87
2023-04-20T04:02:47.726Z,87
2023-04-20T04:03:54.568Z,87
2023-04-20T04:05:01.253Z,87
2023-04-20T04:06:08.133Z,87
2023-04-20T04:07:14.980Z,87
2023-04-20T04:08:21.743Z,87
2023-04-20T04:09:28.644Z,87
2023-04-20T04:10:35.521Z,87
2023-04-20T04:11:42.395Z,87
2023-04-20T04:12:49.298Z,87
2023-04-20T04:13:56.212Z,87
2023-04-20T04:15:03.134Z,87
2023-04-20T04:16:11.346Z,88
2023-04-20T04:17:18.206Z,89
2023-04-20T04:18:25.265Z,88
2023-04-20T04:19:32.011Z,88
2023-04-20T04:20:38.864Z,88
2023-04-20T04:21:45.618Z,87
2023-04-20T04:22:52.467Z,88
2023-04-20T04:23:59.286Z,88
2023-04-20T04:25:06.223Z,87
2023-04-20T04:26:13.208Z,87
2023-04-20T04:27:20.055Z,87
2023-04-20T04:28:26.921Z,87
2023-04-20T04:29:33.788Z,87
2023-04-20T04:30:40.678Z,87
2023-04-20T04:31:47.712Z,87
2023-04-20T04:32:54.508Z,87
2023-04-20T04:34:01.369Z,87
2023-04-20T04:35:08.181Z,87
2023-04-20T04:36:14.994Z,87
2023-04-20T04:37:21.813Z,87
2023-04-20T04:38:28.739Z,87
2023-04-20T04:39:35.584Z,87
2023-04-20T04:40:42.453Z,87
2023-04-20T04:41:49.280Z,87
2023-04-20T04:42:56.094Z,87
2023-04-20T04:44:02.922Z,87
2023-04-20T04:45:09.770Z,87
2023-04-20T04:46:16.733Z,87
2023-04-20T04:47:23.531Z,87
2023-04-20T04:48:30.353Z,87
2023-04-20T04:49:37.190Z,87
2023-04-20T04:50:46.765Z,87
2023-04-20T04:51:53.574Z,87
2023-04-20T04:53:00.479Z,87
2023-04-20T04:54:07.275Z,87
2023-04-20T04:55:16.206Z,87
2023-04-20T04:56:21.027Z,87
2023-04-20T04:57:28.765Z,87
2023-04-20T04:58:35.629Z,87
2023-04-20T04:59:42.503Z,87
2023-04-20T05:00:50.414Z,87
2023-04-20T05:01:57.261Z,87
2023-04-20T05:03:04.292Z,87
2023-04-20T05:04:11.161Z,87
2023-04-20T05:05:17.854Z,87
2023-04-20T05:06:24.786Z,87
2023-04-20T05:07:32.004Z,87
2023-04-20T05:08:39.800Z,87
2023-04-20T05:09:46.864Z,87
2023-04-20T05:10:54.705Z,87
2023-04-20T05:12:01.677Z,87
2023-04-20T05:13:08.769Z,87
2023-04-20T05:14:18.627Z,87
2023-04-20T05:15:25.984Z,87
2023-04-20T05:16:35.746Z,87
2023-04-20T05:17:46.431Z,87
2023-04-20T05:18:54.700Z,87
2023-04-20T05:20:02.138Z,87
2023-04-20T05:21:09.423Z,87
2023-04-20T05:22:16.393Z,87
2023-04-20T05:23:24.191Z,87
2023-04-20T05:24:31.163Z,87
2023-04-20T05:25:38.089Z,88
2023-04-20T05:26:45.177Z,88
2023-04-20T05:27:54.508Z,87
2023-04-20T05:29:04.550Z,88
2023-04-20T05:30:20.134Z,87
2023-04-20T05:31:18.461Z,87
2023-04-20T05:32:25.375Z,87
2023-04-20T05:33:35.202Z,87
2023-04-20T05:34:44.245Z,87
2023-04-20T05:35:55.397Z,87
2023-04-20T05:37:02.416Z,87
2023-04-20T05:38:12.155Z,87
2023-04-20T05:39:20.398Z,87
2023-04-20T05:40:27.038Z,87
2023-04-20T05:41:34.672Z,87
2023-04-20T05:42:41.665Z,87
2023-04-20T05:43:48.657Z,87
2023-04-20T05:44:55.570Z,88
2023-04-20T05:46:02.993Z,87
2023-04-20T05:47:10.930Z,87
2023-04-20T05:48:21.598Z,87
2023-04-20T05:49:29.855Z,87
2023-04-20T05:50:36.830Z,87
2023-04-20T05:51:44.975Z,87
2023-04-20T05:52:52.968Z,87
2023-04-20T05:54:02.976Z,87
2023-04-20T05:55:09.903Z,87
2023-04-20T05:56:16.883Z,87
2023-04-20T05:57:23.800Z,87
2023-04-20T05:58:32.674Z,87
2023-04-20T05:59:39.565Z,87
2023-04-20T06:00:46.512Z,87
2023-04-20T06:01:53.355Z,87
2023-04-20T06:03:00.334Z,87
2023-04-20T06:04:07.699Z,88
2023-04-20T06:05:14.259Z,87
2023-04-20T06:06:21.817Z,88
2023-04-20T06:07:28.761Z,88
2023-04-20T06:08:36.927Z,88
2023-04-20T06:09:43.775Z,88
2023-04-20T06:10:50.593Z,88
2023-04-20T06:12:04.505Z,88
2023-04-20T06:13:11.481Z,88
2023-04-20T06:14:18.420Z,87
2023-04-20T06:15:26.756Z,87
2023-04-20T06:16:33.866Z,88
2023-04-20T06:17:41.214Z,87
2023-04-20T06:18:47.522Z,87
2023-04-20T06:19:54.698Z,87
2023-04-20T06:21:02.430Z,87
2023-04-20T06:22:09.672Z,87
2023-04-20T06:23:16.587Z,86
2023-04-20T06:24:23.524Z,86
2023-04-20T06:25:30.365Z,87
2023-04-20T06:26:37.750Z,86
2023-04-20T06:27:46.464Z,86
2023-04-20T06:28:53.327Z,86
2023-04-20T06:30:01.359Z,86
2023-04-20T06:31:11.239Z,87
2023-04-20T06:32:18.043Z,87
2023-04-20T06:33:26.012Z,86
2023-04-20T06:34:35.130Z,86
2023-04-20T06:35:41.963Z,86
2023-04-20T06:36:48.785Z,87
2023-04-20T06:37:55.609Z,86
2023-04-20T06:39:03.821Z,86
2023-04-20T06:40:14.286Z,86
2023-04-20T06:41:19.832Z,86
2023-04-20T06:42:26.774Z,86
2023-04-20T06:43:33.645Z,86
2023-04-20T06:44:40.521Z,86
2023-04-20T06:45:48.522Z,86
2023-04-20T06:46:56.173Z,86
2023-04-20T06:48:03.984Z,86
2023-04-20T06:49:12.385Z,86
2023-04-20T06:50:20.337Z,85
2023-04-20T06:51:28.285Z,85
2023-04-20T06:52:35.240Z,85
2023-04-20T06:53:43.904Z,85
2023-04-20T06:54:50.757Z,85
2023-04-20T06:55:57.718Z,85
2023-04-20T06:57:05.105Z,85
2023-04-20T06:58:12.130Z,84
2023-04-20T06:59:19.422Z,85
2023-04-20T07:00:30.264Z,85
2023-04-20T07:01:38.223Z,85
2023-04-20T07:02:46.611Z,85
2023-04-20T07:03:55.023Z,85
2023-04-20T07:05:01.782Z,85
2023-04-20T07:06:08.984Z,85
2023-04-20T07:07:19.522Z,85
2023-04-20T07:08:28.575Z,84
2023-04-20T07:09:36.912Z,85
2023-04-20T07:10:43.908Z,85
2023-04-20T07:11:51.594Z,84
2023-04-20T07:12:58.498Z,85
2023-04-20T07:14:06.054Z,84
2023-04-20T07:15:14.812Z,85
2023-04-20T07:16:21.747Z,85
2023-04-20T07:17:28.533Z,85
2023-04-20T07:18:35.784Z,85
2023-04-20T07:19:42.319Z,85
2023-04-20T07:20:49.147Z,85
2023-04-20T07:21:56.021Z,84
2023-04-20T07:23:02.945Z,84
2023-04-20T07:24:12.930Z,84
2023-04-20T07:25:21.286Z,84
2023-04-20T07:26:28.165Z,83
2023-04-20T07:27:37.288Z,83
2023-04-20T07:28:44.214Z,84
2023-04-20T07:29:54.225Z,83
2023-04-20T07:31:01.352Z,83
2023-04-20T07:32:09.347Z,83
2023-04-20T07:33:18.368Z,83
2023-04-20T07:34:25.315Z,83
2023-04-20T07:35:36.617Z,83
2023-04-20T07:36:43.581Z,83
2023-04-20T07:37:50.518Z,83
2023-04-20T07:38:57.404Z,83
2023-04-20T07:40:04.818Z,83
2023-04-20T07:41:13.630Z,83
2023-04-20T07:42:23.293Z,84
2023-04-20T07:43:30.306Z,84
2023-04-20T07:44:37.239Z,84
2023-04-20T07:45:45.077Z,84
2023-04-20T07:46:56.375Z,83
2023-04-20T07:48:04.309Z,83
2023-04-20T07:49:11.241Z,84
2023-04-20T07:50:18.848Z,83
2023-04-20T07:51:27.609Z,83
2023-04-20T07:52:34.577Z,83
2023-04-20T07:53:41.526Z,82
2023-04-20T07:54:49.328Z,82
2023-04-20T07:56:02.843Z,81
2023-04-20T07:57:11.005Z,81
2023-04-20T07:58:17.983Z,80
2023-04-20T07:59:25.165Z,81
2023-04-20T08:00:35.031Z,80
2023-04-20T08:01:42.081Z,79
2023-04-20T08:02:49.935Z,79
2023-04-20T08:03:57.717Z,79
2023-04-20T08:05:04.656Z,79
2023-04-20T08:06:11.310Z,78
2023-04-20T08:07:18.173Z,78
2023-04-20T08:08:25.047Z,78
2023-04-20T08:09:31.913Z,78
2023-04-20T08:10:38.768Z,77
2023-04-20T08:11:46.602Z,78
2023-04-20T08:12:54.389Z,78
2023-04-20T08:14:01.374Z,77
2023-04-20T08:15:08.430Z,76
2023-04-20T08:16:15.135Z,77
2023-04-20T08:17:25.116Z,77
2023-04-20T08:18:31.962Z,77
2023-04-20T08:19:39.542Z,77
2023-04-20T08:20:48.299Z,76
2023-04-20T08:21:55.096Z,76
2023-04-20T08:23:01.948Z,76
2023-04-20T08:24:08.778Z,76
2023-04-20T08:25:15.596Z,75
2023-04-20T08:26:22.570Z,75
2023-04-20T08:27:30.831Z,74
2023-04-20T08:28:38.725Z,73
2023-04-20T08:29:45.562Z,73
2023-04-20T08:30:52.995Z,73
2023-04-20T08:31:59.551Z,73
2023-04-20T08:33:07.115Z,72
2023-04-20T08:34:15.298Z,72
2023-04-20T08:35:21.948Z,71
2023-04-20T08:36:31.010Z,72
2023-04-20T08:37:37.775Z,72
2023-04-20T08:38:44.662Z,71
2023-04-20T08:39:51.752Z,71
2023-04-20T08:40:58.654Z,71
2023-04-20T08:42:06.403Z,71
2023-04-20T08:43:13.227Z,71
2023-04-20T08:44:20.091Z,71
2023-04-20T08:45:27.269Z,71
2023-04-20T08:46:34.402Z,70
2023-04-20T08:47:43.099Z,70
2023-04-20T08:48:49.880Z,71
2023-04-20T08:49:56.731Z,71
2023-04-20T08:51:03.597Z,70
2023-04-20T08:52:10.454Z,70
2023-04-20T08:53:20.526Z,70
2023-04-20T08:54:27.347Z,70
2023-04-20T08:55:34.247Z,71
2023-04-20T08:56:42.048Z,71
2023-04-20T08:57:49.074Z,71
2023-04-20T08:58:55.907Z,71
2023-04-20T09:00:02.801Z,71
2023-04-20T09:01:14.070Z,70
2023-04-20T09:02:19.121Z,70
2023-04-20T09:03:27.234Z,70
2023-04-20T09:04:38.753Z,70
2023-04-20T09:05:45.590Z,70
2023-04-20T09:06:52.416Z,71
2023-04-20T09:07:59.252Z,71
2023-04-20T09:09:07.029Z,71
2023-04-20T09:10:13.875Z,71
2023-04-20T09:11:20.814Z,70
2023-04-20T09:12:27.665Z,70
2023-04-20T09:13:34.523Z,70
2023-04-20T09:14:41.456Z,71
2023-04-20T09:15:48.311Z,70
2023-04-20T09:16:55.114Z,70
2023-04-20T09:18:02.189Z,70
2023-04-20T09:19:17.659Z,69
2023-04-20T09:20:24.540Z,69
2023-04-20T09:21:37.880Z,68
2023-04-20T09:22:52.668Z,69
2023-04-20T09:23:59.459Z,67
2023-04-20T09:25:06.299Z,68
2023-04-20T09:26:19.171Z,68
2023-04-20T09:27:26.004Z,67
2023-04-20T09:28:32.899Z,67
2023-04-20T09:29:39.777Z,66
2023-04-20T09:30:47.658Z,66
2023-04-20T09:31:54.614Z,66
2023-04-20T09:33:01.435Z,67
2023-04-20T09:34:09.190Z,67
2023-04-20T09:35:16.007Z,68
2023-04-20T09:36:26.786Z,67
2023-04-20T09:37:41.283Z,69
2023-04-20T09:38:51.062Z,68
2023-04-20T09:40:08.292Z,67
2023-04-20T09:41:15.224Z,67
2023-04-20T09:42:22.114Z,66
2023-04-20T09:43:28.981Z,67
2023-04-20T09:44:35.837Z,67
2023-04-20T09:45:42.629Z,67
2023-04-20T09:46:49.367Z,68
2023-04-20T09:47:56.160Z,67
2023-04-20T09:49:02.922Z,66
2023-04-20T09:50:19.899Z,66
2023-04-20T09:51:16.647Z,65
2023-04-20T09:52:23.518Z,66
2023-04-20T09:53:30.390Z,65
2023-04-20T09:54:37.232Z,64
2023-04-20T09:55:44.047Z,64
2023-04-20T09:56:53.905Z,65
2023-04-20T09:58:00.874Z,65
2023-04-20T09:59:07.751Z,66
2023-04-20T10:00:14.552Z,64
2023-04-20T10:01:21.618Z,64
2023-04-20T10:02:28.615Z,64
2023-04-20T10:03:35.544Z,64
2023-04-20T10:04:42.531Z,65
2023-04-20T10:05:57.089Z,65
2023-04-20T10:07:03.998Z,66
2023-04-20T10:08:10.898Z,65
2023-04-20T10:09:17.860Z,65
2023-04-20T10:10:24.643Z,66
2023-04-20T10:11:37.402Z,65
2023-04-20T10:12:38.293Z,65
2023-04-20T10:13:50.279Z,65
2023-04-20T10:14:57.107Z,66
2023-04-20T10:16:03.904Z,66
2023-04-20T10:17:10.853Z,66
2023-04-20T10:18:17.873Z,66
2023-04-20T10:19:24.509Z,66
2023-04-20T10:20:39.354Z,65
2023-04-20T10:21:46.177Z,65
2023-04-20T10:22:53.086Z,65
2023-04-20T10:24:00.267Z,65
2023-04-20T10:25:07.276Z,65
2023-04-20T10:26:16.982Z,65
2023-04-20T10:27:23.815Z,65
2023-04-20T10:28:30.649Z,65
2023-04-20T10:29:40.712Z,65
2023-04-20T10:30:47.546Z,65
2023-04-20T10:31:54.427Z,64
2023-04-20T10:33:01.340Z,64
2023-04-20T10:34:13.954Z,64
2023-04-20T10:35:20.832Z,64
2023-04-20T10:36:27.727Z,64
2023-04-20T10:37:37.176Z,64
2023-04-20T10:38:52.189Z,65
2023-04-20T10:39:59.113Z,65
2023-04-20T10:41:05.987Z,65
2023-04-20T10:42:12.815Z,65
2023-04-20T10:43:19.598Z,65
2023-04-20T10:44:26.435Z,65
2023-04-20T10:45:33.219Z,65
2023-04-20T10:46:40.972Z,65
2023-04-20T10:47:47.820Z,65
2023-04-20T10:48:54.729Z,65
2023-04-20T10:50:01.664Z,64
2023-04-20T10:51:14.427Z,65
2023-04-20T10:52:21.411Z,64
2023-04-20T10:53:36.456Z,64
2023-04-20T10:54:43.198Z,65
2023-04-20T10:55:51.125Z,64
2023-04-20T10:57:01.222Z,64
2023-04-20T10:58:08.125Z,65
2023-04-20T10:59:25.255Z,65
2023-04-20T11:00:32.055Z,65
2023-04-20T11:01:38.892Z,64
2023-04-20T11:02:45.706Z,64
2023-04-20T11:03:52.596Z,64
2023-04-20T11:04:59.512Z,64
2023-04-20T11:06:12.192Z,65
2023-04-20T11:07:19.186Z,65
2023-04-20T11:08:26.186Z,65
2023-04-20T11:09:40.952Z,64
2023-04-20T11:10:50.990Z,64
2023-04-20T11:11:57.811Z,64
2023-04-20T11:13:07.452Z,65
2023-04-20T11:14:24.719Z,65
2023-04-20T11:15:31.578Z,65
2023-04-20T11:16:49.504Z,65
2023-04-20T11:17:45.330Z,66
2023-04-20T11:18:52.180Z,65
2023-04-20T11:19:59.055Z,65
2023-04-20T11:21:16.181Z,65
2023-04-20T11:22:23.101Z,65
2023-04-20T11:23:30.106Z,65
2023-04-20T11:24:37.511Z,65
2023-04-20T11:25:44.608Z,65
2023-04-20T11:26:54.573Z,64
2023-04-20T11:28:01.496Z,64
2023-04-20T11:29:11.140Z,65
2023-04-20T11:30:19.966Z,66
2023-04-20T11:31:27.037Z,66
2023-04-20T11:32:34.092Z,65
2023-04-20T11:33:40.742Z,64
2023-04-20T11:34:50.188Z,65
2023-04-20T11:36:02.441Z,65
2023-04-20T11:37:09.377Z,65
2023-04-20T11:38:19.228Z,65
2023-04-20T11:39:31.256Z,65
2023-04-20T11:40:38.085Z,65
2023-04-20T11:41:45.062Z,65
2023-04-20T11:42:51.913Z,66
2023-04-20T11:43:58.808Z,64
2023-04-20T11:45:05.625Z,65
2023-04-20T11:46:14.106Z,64
2023-04-20T11:47:24.023Z,65
2023-04-20T11:48:30.882Z,64
2023-04-20T11:49:37.705Z,64
2023-04-20T11:50:44.662Z,65
2023-04-20T11:51:51.536Z,65
2023-04-20T11:52:58.315Z,65
2023-04-20T11:54:05.142Z,64
2023-04-20T11:55:11.911Z,65
2023-04-20T11:56:18.795Z,65
2023-04-20T11:57:25.707Z,64
2023-04-20T11:58:32.492Z,64
2023-04-20T11:59:39.530Z,65
2023-04-20T12:00:46.438Z,64
2023-04-20T12:01:53.363Z,64
2023-04-20T12:03:00.352Z,64
2023-04-20T12:04:07.195Z,64
2023-04-20T12:05:13.782Z,64
2023-04-20T12:06:20.678Z,63
2023-04-20T12:07:27.562Z,63
2023-04-20T12:08:34.354Z,63
2023-04-20T12:09:41.090Z,63
2023-04-20T12:10:47.939Z,63
2023-04-20T12:11:54.840Z,62
2023-04-20T12:13:01.764Z,63
2023-04-20T12:14:08.530Z,62
2023-04-20T12:15:15.317Z,62
2023-04-20T12:16:22.126Z,63
2023-04-20T12:17:28.955Z,63
2023-04-20T12:18:35.710Z,62
2023-04-20T12:19:43.122Z,63
2023-04-20T12:20:50.047Z,62
2023-04-20T12:21:56.802Z,62
2023-04-20T12:23:03.656Z,62
2023-04-20T12:24:10.495Z,62
2023-04-20T12:25:17.303Z,63
2023-04-20T12:26:34.799Z,63
2023-04-20T12:27:31.267Z,62
2023-04-20T12:28:38.085Z,61
2023-04-20T12:29:45.043Z,61
2023-04-20T12:30:51.849Z,61
2023-04-20T12:31:58.809Z,61
2023-04-20T12:33:05.527Z,61
2023-04-20T12:34:12.341Z,61
2023-04-20T12:35:19.340Z,62
2023-04-20T12:36:26.291Z,61
2023-04-20T12:37:34.663Z,61
2023-04-20T12:38:41.752Z,60
2023-04-20T12:39:48.706Z,60
2023-04-20T12:40:55.693Z,60
2023-04-20T12:42:03.778Z,60
2023-04-20T12:43:10.653Z,60
2023-04-20T12:44:17.725Z,61
2023-04-20T12:45:24.363Z,61
2023-04-20T12:46:31.277Z,61
2023-04-20T12:47:38.075Z,61
2023-04-20T12:48:44.903Z,61
2023-04-20T12:49:51.690Z,59
2023-04-20T12:50:58.464Z,60
2023-04-20T12:52:07.587Z,60
2023-04-20T12:53:12.457Z,60
2023-04-20T12:54:19.690Z,60
2023-04-20T12:55:26.380Z,60
2023-04-20T12:56:34.141Z,60
2023-04-20T12:57:41.216Z,60
2023-04-20T12:58:48.119Z,60
2023-04-20T12:59:54.962Z,61
2023-04-20T13:01:01.898Z,60
2023-04-20T13:02:08.992Z,60
2023-04-20T13:03:15.893Z,60
2023-04-20T13:04:23.483Z,61
2023-04-20T13:05:29.660Z,61
2023-04-20T13:06:39.866Z,61
2023-04-20T13:07:46.735Z,60
2023-04-20T13:08:53.679Z,60
2023-04-20T13:10:00.668Z,60
2023-04-20T13:11:12.090Z,60
2023-04-20T13:12:19.022Z,60
2023-04-20T13:13:26.881Z,60
2023-04-20T13:14:33.848Z,60
2023-04-20T13:15:40.835Z,59
2023-04-20T13:16:47.916Z,59
2023-04-20T13:17:55.058Z,59
2023-04-20T13:19:01.925Z,60
2023-04-20T13:20:08.948Z,59
2023-04-20T13:21:15.902Z,59
2023-04-20T13:22:23.310Z,59
2023-04-20T13:23:30.340Z,59
2023-04-20T13:24:37.321Z,59
2023-04-20T13:25:44.294Z,59
2023-04-20T13:26:51.269Z,59
2023-04-20T13:28:01.280Z,59
2023-04-20T13:29:08.355Z,59
2023-04-20T13:30:15.359Z,59
2023-04-20T13:31:22.342Z,58
2023-04-20T13:32:29.226Z,59
2023-04-20T13:33:36.335Z,57
2023-04-20T13:34:46.269Z,58
2023-04-20T13:35:53.304Z,59
2023-04-20T13:37:00.401Z,58
2023-04-20T13:38:07.328Z,57
2023-04-20T13:39:14.347Z,57
2023-04-20T13:40:21.310Z,57
2023-04-20T13:41:28.836Z,58
2023-04-20T13:42:35.842Z,58
2023-04-20T13:43:42.757Z,59
2023-04-20T13:44:49.683Z,58
2023-04-20T13:45:56.764Z,58
2023-04-20T13:47:03.741Z,58
2023-04-20T13:48:10.847Z,58
2023-04-20T13:49:17.864Z,58
2023-04-20T13:50:26.138Z,58
2023-04-20T13:51:33.131Z,58
2023-04-20T13:52:40.118Z,58
2023-04-20T13:53:47.216Z,58
2023-04-20T13:54:54.117Z,59
2023-04-20T13:56:01.055Z,59
2023-04-20T13:57:23.443Z,59
2023-04-20T13:58:30.424Z,59
2023-04-20T13:59:37.254Z,59
2023-04-20T14:00:44.158Z,59
2023-04-20T14:01:51.203Z,59
2023-04-20T14:02:57.962Z,59
2023-04-20T14:04:04.922Z,59
2023-04-20T14:05:11.571Z,59
2023-04-20T14:06:18.386Z,59
2023-04-20T14:07:25.278Z,59
2023-04-20T14:08:32.018Z,59
2023-04-20T14:09:38.872Z,60
2023-04-20T14:10:45.692Z,59
2023-04-20T14:11:54.961Z,59
2023-04-20T14:12:59.292Z,59
2023-04-20T14:14:06.063Z,59
2023-04-20T14:15:12.862Z,60
2023-04-20T14:16:19.763Z,58
2023-04-20T14:17:26.571Z,58
2023-04-20T14:18:33.354Z,59
2023-04-20T14:19:40.154Z,59
2023-04-20T14:20:46.971Z,59
2023-04-20T14:21:53.834Z,60
2023-04-20T14:23:00.669Z,58
2023-04-20T14:24:07.399Z,58
2023-04-20T14:25:14.232Z,58
2023-04-20T14:26:21.091Z,58
2023-04-20T14:27:27.931Z,58
2023-04-20T14:28:34.806Z,59
2023-04-20T14:29:41.598Z,59
2023-04-20T14:30:48.449Z,60
2023-04-20T14:31:56.214Z,59
2023-04-20T14:33:03.139Z,59
2023-04-20T14:34:09.888Z,59
2023-04-20T14:35:16.722Z,59
2023-04-20T14:36:23.534Z,59
2023-04-20T14:37:30.337Z,60
2023-04-20T14:38:37.137Z,59
2023-04-20T14:39:43.962Z,59
2023-04-20T14:40:50.991Z,59
2023-04-20T14:41:57.786Z,59
2023-04-20T14:43:04.642Z,60
2023-04-20T14:44:11.470Z,61
2023-04-20T14:45:18.274Z,58
2023-04-20T14:46:25.243Z,59
2023-04-20T14:47:32.052Z,60
2023-04-20T14:48:38.746Z,59
2023-04-20T14:49:45.638Z,59
2023-04-20T14:50:52.449Z,58
2023-04-20T14:51:59.312Z,59
2023-04-20T14:53:06.184Z,57
2023-04-20T14:54:12.947Z,57
2023-04-20T14:55:19.927Z,57
2023-04-20T14:56:26.812Z,55
2023-04-20T14:57:33.580Z,51
2023-04-20T14:58:40.438Z,50
2023-04-20T14:59:47.262Z,50
2023-04-20T15:00:54.071Z,50
2023-04-20T15:02:03.240Z,50
2023-04-20T15:03:07.810Z,51
2023-04-20T15:04:14.510Z,51
2023-04-20T15:05:21.403Z,52
2023-04-20T15:06:28.034Z,52
2023-04-20T15:07:34.841Z,51
2023-04-20T15:08:41.623Z,52
2023-04-20T15:09:48.432Z,51
2023-04-20T15:10:57.393Z,52
2023-04-20T15:12:04.440Z,52
2023-04-20T15:13:11.352Z,51
2023-04-20T15:14:19.429Z,50
2023-04-20T15:15:34.636Z,50
2023-04-20T15:16:34.195Z,51
2023-04-20T15:17:44.413Z,52
2023-04-20T15:18:51.248Z,52
2023-04-20T15:19:58.080Z,52
2023-04-20T15:21:08.245Z,52
2023-04-20T15:22:15.014Z,53
2023-04-20T15:23:22.660Z,53
2023-04-20T15:24:31.780Z,52
2023-04-20T15:25:38.620Z,52
2023-04-20T15:26:45.457Z,53
2023-04-20T15:27:53.472Z,54
2023-04-20T15:29:00.366Z,53
2023-04-20T15:30:07.375Z,53
2023-04-20T15:31:14.351Z,53
2023-04-20T15:32:21.363Z,53
2023-04-20T15:33:28.170Z,53
2023-04-20T15:34:36.102Z,54
2023-04-20T15:35:42.897Z,54
2023-04-20T15:36:49.770Z,54
2023-04-20T15:37:56.610Z,54
2023-04-20T15:39:03.416Z,54
2023-04-20T15:40:10.238Z,54
2023-04-20T15:41:17.060Z,54
2023-04-20T15:42:24.080Z,54
2023-04-20T15:43:33.013Z,54
2023-04-20T15:44:39.853Z,54
2023-04-20T15:45:46.728Z,54
2023-04-20T15:46:53.550Z,54
2023-04-20T15:48:00.425Z,53
2023-04-20T15:49:07.256Z,53
2023-04-20T15:50:14.063Z,54
2023-04-20T15:51:21.295Z,53
2023-04-20T15:52:28.158Z,53
2023-04-20T15:53:34.940Z,54
2023-04-20T15:54:41.748Z,53
2023-04-20T15:55:48.560Z,53
2023-04-20T15:56:55.554Z,53
2023-04-20T15:58:02.410Z,53
2023-04-20T15:59:09.219Z,53
2023-04-20T16:00:16.059Z,53
2023-04-20T16:01:23.041Z,53